Time;durP1;ratioP1;P1;durP2;ratioP2;P2;SDS_P1;SDS_P2;PMS_P1;PMS_P2;Temp;Humidity;BMP_temperature;BMP_pressure;BME280_temperature;BME280_humidity;BME280_pressure;Samples;Min_cycle;Max_cycle;Signal;HPM_P1;HPM_P2
2022/10/16 00:01:35;;;;;;;9.07;4.55;;;;;;;19.16;49.14;100020.25;4493998;31;33676;-69
2022/10/16 00:04:02;;;;;;;8.35;3.45;;;;;;;19.14;49.16;100018.75;4499752;31;33955;-69
2022/10/16 00:06:30;;;;;;;6.50;2.80;;;;;;;19.13;49.04;100015.16;4494184;31;34232;-69
2022/10/16 00:08:59;;;;;;;6.65;3.70;;;;;;;19.12;48.97;100009.91;4494647;31;34133;-70
2022/10/16 00:11:36;;;;;;;7.78;4.45;;;;;;;19.08;49.02;100012.09;4500800;31;31986;-69
2022/10/16 00:14:07;;;;;;;8.80;3.35;;;;;;;19.03;48.99;100015.28;4495231;31;33802;-68
2022/10/16 00:16:35;;;;;;;10.00;5.30;;;;;;;19.03;49.03;100003.59;4491626;31;33062;-69
2022/10/16 00:19:03;;;;;;;7.70;2.60;;;;;;;18.87;49.65;100007.06;4494321;31;32173;-68
2022/10/16 00:21:31;;;;;;;14.23;5.12;;;;;;;18.88;49.42;100007.94;4494378;31;32696;-68
2022/10/16 00:24:18;;;;;;;14.80;4.87;;;;;;;18.72;50.11;100017.69;4495250;31;34061;-69
2022/10/16 00:26:45;;;;;;;8.23;4.10;;;;;;;18.67;50.01;100014.56;4489545;31;32506;-69
2022/10/16 00:29:13;;;;;;;6.35;3.97;;;;;;;18.56;50.38;100021.13;4489625;31;34648;-68
2022/10/16 00:31:40;;;;;;;8.48;3.62;;;;;;;18.45;50.57;100020.53;4493224;31;31485;-69
2022/10/16 00:34:08;;;;;;;6.68;3.65;;;;;;;18.09;51.91;100024.13;4494771;31;34029;-69
2022/10/16 00:36:36;;;;;;;7.53;4.55;;;;;;;18.18;51.20;100027.78;4492361;31;33851;-69
2022/10/16 00:39:03;;;;;;;24.30;5.00;;;;;;;18.21;51.17;100030.16;4496959;31;34224;-68
2022/10/16 00:41:31;;;;;;;5.20;2.78;;;;;;;18.30;50.95;100028.38;4496244;31;34749;-69
2022/10/16 00:44:01;;;;;;;12.75;3.33;;;;;;;18.51;50.38;100031.56;4496643;31;33902;-68
2022/10/16 00:46:38;;;;;;;4.50;2.65;;;;;;;18.59;49.85;100028.09;4495494;31;34782;-69
2022/10/16 00:49:10;;;;;;;5.68;3.12;;;;;;;18.51;49.88;100031.56;4493755;31;34196;-69
2022/10/16 00:51:44;;;;;;;5.78;3.03;;;;;;;18.53;49.90;100024.16;4494672;31;34846;-68
2022/10/16 00:54:15;;;;;;;3.73;2.43;;;;;;;18.51;50.14;100036.16;4483978;31;34022;-69
2022/10/16 00:56:43;;;;;;;5.57;2.62;;;;;;;18.53;50.03;100034.97;4494612;31;34113;-70
2022/10/16 00:59:24;;;;;;;4.62;3.37;;;;;;;18.42;49.90;100037.09;4486265;31;34696;-68
2022/10/16 01:01:53;;;;;;;6.45;3.17;;;;;;;18.46;49.85;100042.06;4485133;31;34919;-69
2022/10/16 01:04:21;;;;;;;5.78;3.17;;;;;;;18.46;49.85;100036.63;4490715;31;35143;-68
2022/10/16 01:06:55;;;;;;;6.43;3.65;;;;;;;18.43;49.87;100047.78;4487682;31;34597;-68
2022/10/16 01:09:29;;;;;;;5.62;3.45;;;;;;;18.36;49.94;100049.41;4481647;31;34434;-68
2022/10/16 01:12:14;;;;;;;6.53;3.50;;;;;;;18.26;50.15;100054.06;4483645;31;34856;-69
2022/10/16 01:14:49;;;;;;;4.32;3.03;;;;;;;18.06;50.40;100059.66;4495546;31;35035;-68
2022/10/16 01:17:37;;;;;;;2.67;2.08;;;;;;;18.12;50.17;100048.22;4489194;31;33977;-68
2022/10/16 01:20:22;;;;;;;5.28;2.33;;;;;;;18.07;50.27;100055.09;4482327;31;33545;-68
2022/10/16 01:23:05;;;;;;;10.82;2.53;;;;;;;18.08;50.32;100057.66;4485727;31;33882;-68
2022/10/16 01:25:54;;;;;;;4.00;2.90;;;;;;;18.21;50.05;100059.97;4488585;31;34067;-66
2022/10/16 01:28:25;;;;;;;5.28;2.95;;;;;;;18.21;50.01;100064.53;4495060;31;33419;-68
2022/10/16 01:30:56;;;;;;;6.25;3.08;;;;;;;18.10;50.35;100060.19;4490209;31;34663;-67
2022/10/16 01:33:28;;;;;;;5.10;3.03;;;;;;;18.04;50.22;100061.69;4482773;31;33745;-68
2022/10/16 01:36:01;;;;;;;5.62;3.40;;;;;;;18.08;50.18;100062.22;4492504;31;32437;-68
2022/10/16 01:38:38;;;;;;;9.30;3.47;;;;;;;18.07;50.00;100061.37;4492891;31;33738;-68
2022/10/16 01:41:17;;;;;;;4.62;2.58;;;;;;;18.07;50.00;100066.81;4508297;31;34440;-68
2022/10/16 01:44:06;;;;;;;5.97;3.33;;;;;;;18.15;49.67;100068.72;4499118;31;34850;-68
2022/10/16 01:46:36;;;;;;;5.07;2.83;;;;;;;18.12;49.76;100069.88;4490213;31;34077;-68
2022/10/16 01:49:04;;;;;;;5.68;3.15;;;;;;;18.08;49.80;100068.50;4490553;31;35156;-68
2022/10/16 01:51:32;;;;;;;4.95;2.83;;;;;;;18.10;49.87;100063.75;4485741;31;33179;-67
2022/10/16 01:54:01;;;;;;;4.03;2.55;;;;;;;18.09;49.96;100069.34;4490687;31;32649;-68
2022/10/16 01:56:29;;;;;;;6.78;3.65;;;;;;;18.05;49.91;100055.25;4487780;31;32504;-68
2022/10/16 01:59:23;;;;;;;4.68;2.58;;;;;;;18.00;49.81;100068.41;4484096;31;33332;-68
2022/10/16 02:01:58;;;;;;;3.65;2.42;;;;;;;17.93;49.75;100070.87;4482229;31;33121;-68
2022/10/16 02:04:33;;;;;;;6.90;3.33;;;;;;;17.77;49.91;100065.31;4487730;31;33760;-69
2022/10/16 02:07:00;;;;;;;2.50;1.80;;;;;;;17.67;50.26;100070.75;4484086;31;35038;-69
2022/10/16 02:09:30;;;;;;;4.43;2.78;;;;;;;16.82;52.57;100071.88;4495372;31;33755;-68
2022/10/16 02:12:02;;;;;;;5.07;2.60;;;;;;;17.05;51.61;100085.88;4488056;31;33090;-68
2022/10/16 02:14:30;;;;;;;5.12;2.92;;;;;;;17.27;50.93;100081.97;4485788;31;35099;-71
2022/10/16 02:16:57;;;;;;;6.22;3.90;;;;;;;17.11;51.57;100088.00;4495361;31;32583;-71
2022/10/16 02:19:24;;;;;;;4.85;2.78;;;;;;;17.40;50.68;100085.16;4492553;31;34245;-69
2022/10/16 02:22:02;;;;;;;2.65;2.08;;;;;;;17.47;50.23;100085.41;4482561;31;33299;-69
2022/10/16 02:24:32;;;;;;;5.57;3.08;;;;;;;17.49;50.44;100086.09;4482798;31;34868;-69
2022/10/16 02:27:05;;;;;;;6.53;3.28;;;;;;;17.54;50.00;100081.09;4481512;31;33411;-67
2022/10/16 02:29:34;;;;;;;3.35;2.17;;;;;;;17.55;49.87;100085.50;4488460;31;34335;-68
2022/10/16 02:32:04;;;;;;;4.22;2.28;;;;;;;17.63;49.50;100082.03;4482948;31;33230;-68
2022/10/16 02:34:32;;;;;;;6.75;3.05;;;;;;;17.68;49.33;100082.41;4486556;31;33636;-69
2022/10/16 02:37:01;;;;;;;8.20;2.33;;;;;;;17.64;49.44;100092.69;4487442;31;34131;-68
2022/10/16 02:39:29;;;;;;;3.67;2.20;;;;;;;17.58;49.51;100096.00;4482423;31;34047;-68
2022/10/16 02:41:56;;;;;;;4.95;2.05;;;;;;;17.61;49.47;100097.56;4488300;31;33588;-69
2022/10/16 02:44:23;;;;;;;2.55;2.28;;;;;;;17.56;49.48;100095.34;4492424;31;35022;-69
2022/10/16 02:46:51;;;;;;;4.95;2.95;;;;;;;17.56;49.44;100106.16;4489459;31;33823;-69
2022/10/16 02:49:18;;;;;;;6.10;3.83;;;;;;;17.63;49.39;100099.13;4486717;31;33865;-68
2022/10/16 02:51:46;;;;;;;3.72;2.50;;;;;;;17.55;49.71;100095.47;4486627;31;33236;-69
2022/10/16 02:54:14;;;;;;;3.90;3.00;;;;;;;17.55;49.51;100100.88;4494004;31;35076;-68
2022/10/16 02:56:41;;;;;;;4.87;2.97;;;;;;;17.50;49.56;100097.78;4494900;31;34097;-69
2022/10/16 02:59:09;;;;;;;4.72;1.77;;;;;;;17.53;49.57;100109.16;4484407;31;33571;-68
2022/10/16 03:01:36;;;;;;;4.12;2.53;;;;;;;17.50;49.82;100101.34;4491405;31;32220;-68
2022/10/16 03:04:04;;;;;;;4.68;3.15;;;;;;;17.42;49.92;100101.22;4484870;31;34891;-68
2022/10/16 03:06:31;;;;;;;5.07;3.25;;;;;;;17.23;50.10;100104.87;4498928;31;34601;-68
2022/10/16 03:08:59;;;;;;;5.43;3.60;;;;;;;17.30;49.89;100105.97;4492003;31;33938;-68
2022/10/16 03:11:27;;;;;;;5.00;3.10;;;;;;;17.30;50.26;100099.72;4491877;31;33309;-67
2022/10/16 03:13:55;;;;;;;8.82;4.18;;;;;;;17.25;50.20;100104.75;4497092;31;33883;-68
2022/10/16 03:16:23;;;;;;;5.57;2.92;;;;;;;17.25;50.02;100119.13;4496232;31;34074;-67
2022/10/16 03:18:50;;;;;;;2.65;1.85;;;;;;;17.26;49.98;100115.41;4497680;31;32674;-67
2022/10/16 03:21:17;;;;;;;3.00;2.30;;;;;;;17.26;49.86;100114.56;4488203;31;33377;-67
2022/10/16 03:23:46;;;;;;;7.18;3.05;;;;;;;17.19;49.81;100123.25;4497687;31;35046;-67
2022/10/16 03:26:13;;;;;;;4.75;2.75;;;;;;;17.13;49.79;100123.00;4494580;31;35182;-67
2022/10/16 03:28:41;;;;;;;5.07;3.30;;;;;;;17.20;49.73;100119.53;4486930;31;35141;-67
2022/10/16 03:31:09;;;;;;;4.43;3.10;;;;;;;17.21;49.81;100123.13;4484862;31;33328;-67
2022/10/16 03:33:36;;;;;;;4.95;3.08;;;;;;;17.11;49.80;100130.41;4493495;31;34629;-67
2022/10/16 03:36:04;;;;;;;3.65;2.15;;;;;;;17.09;49.87;100129.72;4494750;31;34114;-67
2022/10/16 03:38:31;;;;;;;5.55;2.47;;;;;;;17.09;49.73;100133.25;4495202;31;32481;-67
2022/10/16 03:40:59;;;;;;;5.30;2.78;;;;;;;16.89;50.20;100135.16;4482754;31;33155;-67
2022/10/16 03:43:26;;;;;;;4.90;2.80;;;;;;;17.00;49.86;100140.41;4481279;31;33840;-67
2022/10/16 03:45:54;;;;;;;5.28;2.47;;;;;;;16.94;49.97;100138.28;4482152;31;32582;-68
2022/10/16 03:48:21;;;;;;;3.95;2.85;;;;;;;16.88;50.09;100141.56;4482021;31;33795;-68
2022/10/16 03:50:50;;;;;;;6.80;3.35;;;;;;;16.73;50.33;100137.59;4486463;31;31974;-68
2022/10/16 03:53:18;;;;;;;7.80;3.15;;;;;;;16.85;49.75;100138.28;4482147;31;34148;-68
2022/10/16 03:55:45;;;;;;;4.85;2.55;;;;;;;16.82;49.87;100146.69;4495435;31;32566;-68
2022/10/16 03:58:13;;;;;;;6.12;3.87;;;;;;;16.73;49.92;100140.28;4495594;31;34925;-67
2022/10/16 04:00:44;;;;;;;5.20;2.92;;;;;;;16.60;50.39;100142.44;4494667;31;33090;-67
2022/10/16 04:03:12;;;;;;;4.12;2.00;;;;;;;16.51;50.46;100147.69;4490481;31;33479;-68
2022/10/16 04:05:40;;;;;;;2.60;1.75;;;;;;;16.51;50.33;100150.41;4491070;31;33752;-67
2022/10/16 04:08:07;;;;;;;3.60;2.75;;;;;;;16.49;50.41;100152.37;4495429;31;34678;-68
2022/10/16 04:10:35;;;;;;;4.80;2.90;;;;;;;16.39;50.59;100158.78;4496991;31;33490;-68
2022/10/16 04:13:02;;;;;;;6.72;2.08;;;;;;;16.43;50.37;100165.63;4494870;31;33603;-68
2022/10/16 04:15:30;;;;;;;4.30;2.05;;;;;;;16.38;50.67;100163.34;4491453;31;33963;-67
2022/10/16 04:17:58;;;;;;;6.53;4.25;;;;;;;16.30;50.81;100157.78;4498766;31;34186;-67
2022/10/16 04:20:25;;;;;;;3.85;2.37;;;;;;;16.27;51.02;100156.22;4492747;31;33616;-68
2022/10/16 04:22:52;;;;;;;4.03;3.37;;;;;;;16.39;50.95;100161.50;4488201;31;34721;-66
2022/10/16 04:25:20;;;;;;;3.47;1.83;;;;;;;16.42;50.92;100155.81;4482315;31;34974;-65
2022/10/16 04:27:48;;;;;;;4.07;2.30;;;;;;;16.45;50.85;100163.63;4490168;31;33967;-66
2022/10/16 04:30:15;;;;;;;4.00;3.10;;;;;;;16.33;51.33;100157.50;4486253;31;34846;-70
2022/10/16 04:32:43;;;;;;;3.22;2.62;;;;;;;16.45;51.12;100166.34;4488915;31;33619;-66
2022/10/16 04:35:10;;;;;;;4.00;2.80;;;;;;;16.53;50.99;100152.94;4496185;31;35228;-66
2022/10/16 04:37:38;;;;;;;6.55;2.75;;;;;;;16.59;50.43;100155.09;4483717;31;34674;-63
2022/10/16 04:40:06;;;;;;;3.72;2.30;;;;;;;16.54;50.71;100162.78;4490882;31;33134;-64
2022/10/16 04:42:33;;;;;;;3.92;2.15;;;;;;;16.54;50.56;100158.22;4488738;31;33817;-65
2022/10/16 04:45:01;;;;;;;5.93;2.78;;;;;;;16.59;50.34;100154.22;4485158;31;35040;-66
2022/10/16 04:47:29;;;;;;;3.67;2.50;;;;;;;16.49;50.69;100162.34;4499440;31;33750;-65
2022/10/16 04:49:56;;;;;;;5.78;2.85;;;;;;;16.51;50.21;100172.03;4504284;31;33277;-65
2022/10/16 04:52:24;;;;;;;4.47;2.15;;;;;;;16.34;51.05;100174.56;4496359;31;33998;-63
2022/10/16 04:54:53;;;;;;;4.03;2.90;;;;;;;16.37;50.75;100175.16;4496330;31;34847;-64
2022/10/16 04:57:21;;;;;;;7.18;2.90;;;;;;;16.32;50.93;100174.72;4493558;31;33921;-65
2022/10/16 04:59:48;;;;;;;3.70;2.53;;;;;;;16.29;50.94;100177.69;4488241;31;31411;-65
2022/10/16 05:02:16;;;;;;;3.15;2.17;;;;;;;16.26;50.93;100169.88;4487203;31;34510;-64
2022/10/16 05:04:43;;;;;;;2.80;1.92;;;;;;;16.14;50.97;100168.28;4495617;31;32880;-65
2022/10/16 05:07:11;;;;;;;9.43;3.87;;;;;;;16.10;50.93;100173.13;4490028;31;33643;-65
2022/10/16 05:09:38;;;;;;;5.90;3.03;;;;;;;16.09;51.18;100175.97;4484991;32;34737;-66
2022/10/16 05:12:06;;;;;;;5.93;1.70;;;;;;;16.11;51.42;100176.69;4492117;31;32432;-66
2022/10/16 05:14:33;;;;;;;5.90;3.45;;;;;;;16.10;51.23;100174.97;4498748;31;34010;-65
2022/10/16 05:17:01;;;;;;;5.03;2.78;;;;;;;16.08;51.11;100180.50;4496846;31;32584;-65
2022/10/16 05:19:28;;;;;;;5.18;2.80;;;;;;;16.06;51.08;100185.22;4490457;31;34428;-66
2022/10/16 05:21:56;;;;;;;3.40;2.40;;;;;;;16.06;51.26;100188.75;4494777;31;33709;-65
2022/10/16 05:24:24;;;;;;;7.97;3.60;;;;;;;16.16;50.90;100190.63;4486748;31;35166;-65
2022/10/16 05:26:52;;;;;;;4.70;2.72;;;;;;;16.19;50.83;100190.34;4494738;31;34635;-65
2022/10/16 05:29:19;;;;;;;4.93;2.37;;;;;;;16.12;51.18;100190.06;4493540;31;33499;-65
2022/10/16 05:31:50;;;;;;;3.30;2.10;;;;;;;16.18;51.24;100188.63;4496081;31;34786;-65
2022/10/16 05:34:17;;;;;;;17.50;4.07;;;;;;;16.16;50.99;100193.31;4497226;31;34065;-65
2022/10/16 05:36:46;;;;;;;9.45;4.68;;;;;;;16.10;51.10;100194.72;4488371;31;34574;-66
2022/10/16 05:39:15;;;;;;;12.80;7.45;;;;;;;15.64;52.70;100200.69;4491165;31;34763;-63
2022/10/16 05:41:43;;;;;;;10.38;6.00;;;;;;;15.30;53.37;100204.47;4500011;31;34994;-63
2022/10/16 05:44:10;;;;;;;26.00;9.95;;;;;;;15.90;51.98;100201.94;4492022;31;35493;-64
2022/10/16 05:46:38;;;;;;;11.27;6.35;;;;;;;16.06;51.46;100198.72;4498119;31;32697;-64
2022/10/16 05:49:05;;;;;;;8.05;4.65;;;;;;;16.10;51.52;100204.69;4491182;31;34343;-64
2022/10/16 05:51:33;;;;;;;9.23;3.87;;;;;;;16.13;51.41;100212.50;4497727;31;33410;-64
2022/10/16 05:54:00;;;;;;;8.73;3.55;;;;;;;16.03;52.44;100212.47;4497815;31;33968;-64
2022/10/16 05:56:28;;;;;;;12.20;5.72;;;;;;;16.18;51.94;100212.91;4494435;31;35637;-63
2022/10/16 05:58:55;;;;;;;5.12;3.50;;;;;;;16.29;51.56;100215.50;4495408;31;34359;-63
2022/10/16 06:01:24;;;;;;;7.37;3.05;;;;;;;16.20;51.66;100210.94;4495777;31;33791;-64
2022/10/16 06:03:52;;;;;;;6.25;3.78;;;;;;;16.30;51.58;100218.06;4499758;31;35217;-64
2022/10/16 06:06:21;;;;;;;4.93;3.30;;;;;;;16.00;52.07;100219.00;4495763;31;35250;-64
2022/10/16 06:08:49;;;;;;;4.12;2.90;;;;;;;15.89;52.71;100229.03;4505668;31;33543;-65
2022/10/16 06:11:22;;;;;;;3.87;2.05;;;;;;;15.83;52.92;100239.41;4506375;31;32656;-64
2022/10/16 06:13:51;;;;;;;4.97;3.12;;;;;;;16.10;52.01;100239.78;4500139;31;34139;-64
2022/10/16 06:16:19;;;;;;;4.32;2.78;;;;;;;15.99;52.33;100236.22;4499646;31;33798;-64
2022/10/16 06:18:47;;;;;;;3.92;2.95;;;;;;;16.14;52.10;100233.09;4498784;31;33403;-65
2022/10/16 06:21:17;;;;;;;5.07;2.87;;;;;;;16.00;52.71;100240.59;4486218;31;33078;-64
2022/10/16 06:23:45;;;;;;;4.85;3.50;;;;;;;15.98;52.48;100237.19;4489200;31;35109;-64
2022/10/16 06:26:15;;;;;;;6.22;3.33;;;;;;;15.92;52.78;100256.66;4498498;31;33608;-64
2022/10/16 06:28:43;;;;;;;5.72;3.15;;;;;;;15.84;52.88;100259.16;4488963;31;32173;-64
2022/10/16 06:31:11;;;;;;;5.05;2.90;;;;;;;16.22;51.65;100265.69;4489394;31;32411;-64
2022/10/16 06:33:39;;;;;;;21.58;3.47;;;;;;;16.30;51.55;100268.53;4489565;31;35349;-64
2022/10/16 06:36:10;;;;;;;6.30;3.00;;;;;;;16.20;51.24;100265.81;4487093;31;34048;-64
2022/10/16 06:38:38;;;;;;;3.75;3.35;;;;;;;16.29;51.04;100270.38;4490783;31;33815;-65
2022/10/16 06:41:07;;;;;;;5.78;2.60;;;;;;;16.06;52.15;100266.22;4493242;31;33920;-64
2022/10/16 06:43:37;;;;;;;3.62;2.97;;;;;;;16.07;51.57;100267.91;4487977;31;35100;-63
2022/10/16 06:46:10;;;;;;;2.83;2.05;;;;;;;16.33;51.53;100270.97;4493529;31;33065;-64
2022/10/16 06:48:38;;;;;;;3.15;2.47;;;;;;;16.45;51.80;100283.34;4494875;31;34518;-64
2022/10/16 06:51:11;;;;;;;7.28;4.28;;;;;;;16.03;52.16;100291.63;4483973;31;33539;-64
2022/10/16 06:53:41;;;;;;;4.25;2.87;;;;;;;15.76;52.47;100294.06;4488356;31;33820;-64
2022/10/16 06:56:30;;;;;;;5.35;3.22;;;;;;;16.07;51.98;100300.31;4490882;31;33580;-65
2022/10/16 06:58:59;;;;;;;3.10;2.45;;;;;;;16.18;51.98;100302.91;4493537;31;34316;-64
2022/10/16 07:01:27;;;;;;;6.28;2.75;;;;;;;16.60;51.35;100291.94;4479909;31;34724;-64
2022/10/16 07:03:55;;;;;;;4.72;2.72;;;;;;;16.60;51.43;100296.47;4490474;31;32646;-64
2022/10/16 07:06:24;;;;;;;5.87;3.08;;;;;;;16.73;50.88;100303.31;4489147;31;33974;-64
2022/10/16 07:08:52;;;;;;;4.75;2.85;;;;;;;16.57;51.02;100303.00;4492611;31;33163;-64
2022/10/16 07:11:22;;;;;;;6.25;2.95;;;;;;;17.09;50.08;100308.19;4487348;31;34832;-64
2022/10/16 07:13:50;;;;;;;5.40;2.67;;;;;;;17.27;49.75;100309.19;4498690;31;34055;-64
2022/10/16 07:16:28;;;;;;;9.93;2.28;;;;;;;16.50;50.34;100318.94;4488002;31;34901;-63
2022/10/16 07:18:59;;;;;;;6.57;2.70;;;;;;;17.23;49.03;100310.47;4495111;31;33375;-65
2022/10/16 07:21:29;;;;;;;9.60;3.83;;;;;;;17.17;48.72;100311.03;4493310;31;34683;-64
2022/10/16 07:24:00;;;;;;;4.55;2.37;;;;;;;17.34;48.46;100323.00;4491203;31;35443;-64
2022/10/16 07:26:30;;;;;;;3.92;2.60;;;;;;;17.42;48.70;100323.97;4489632;31;33914;-64
2022/10/16 07:28:58;;;;;;;3.92;2.62;;;;;;;17.36;47.72;100315.56;4490287;31;33275;-64
2022/10/16 07:31:27;;;;;;;3.60;2.42;;;;;;;17.46;47.89;100311.00;4486487;31;32717;-64
2022/10/16 07:33:54;;;;;;;3.55;2.25;;;;;;;17.02;48.49;100313.34;4482825;31;34031;-64
2022/10/16 07:36:22;;;;;;;3.25;2.12;;;;;;;17.34;47.89;100314.87;4490297;31;34142;-64
2022/10/16 07:38:49;;;;;;;4.90;2.87;;;;;;;17.56;47.81;100313.69;4495473;31;33145;-64
2022/10/16 07:41:22;;;;;;;9.27;5.30;;;;;;;17.13;48.78;100318.59;4491380;31;34676;-63
2022/10/16 07:43:51;;;;;;;6.93;3.95;;;;;;;16.93;48.82;100327.69;4489388;31;35279;-64
2022/10/16 07:46:20;;;;;;;4.68;2.70;;;;;;;16.76;49.57;100332.81;4488955;31;33965;-64
2022/10/16 07:48:49;;;;;;;6.00;3.33;;;;;;;17.03;49.35;100327.69;4494221;31;34352;-65
2022/10/16 07:51:24;;;;;;;7.00;3.25;;;;;;;17.23;49.72;100332.09;4493839;31;33842;-64
2022/10/16 07:53:52;;;;;;;4.32;3.05;;;;;;;17.17;48.59;100335.37;4494704;31;35215;-64
2022/10/16 07:56:20;;;;;;;4.62;3.05;;;;;;;17.39;49.21;100332.37;4489754;31;33564;-65
2022/10/16 07:58:49;;;;;;;8.50;4.47;;;;;;;17.54;47.95;100345.47;4485250;31;34337;-65
2022/10/16 08:01:18;;;;;;;5.15;2.58;;;;;;;17.79;47.32;100344.88;4490239;31;34848;-64
2022/10/16 08:03:48;;;;;;;6.43;3.42;;;;;;;17.31;48.12;100350.34;4493734;31;33839;-65
2022/10/16 08:06:16;;;;;;;6.62;3.00;;;;;;;17.48;48.57;100354.16;4493241;31;34112;-64
2022/10/16 08:08:48;;;;;;;8.90;4.07;;;;;;;17.90;47.67;100352.81;4484592;31;34155;-65
2022/10/16 08:11:16;;;;;;;4.93;3.05;;;;;;;17.62;48.03;100359.13;4498266;31;35105;-64
2022/10/16 08:13:43;;;;;;;9.30;5.37;;;;;;;17.43;48.38;100365.41;4496455;31;33579;-64
2022/10/16 08:16:11;;;;;;;7.72;3.80;;;;;;;17.39;48.17;100366.69;4495412;31;34867;-63
2022/10/16 08:18:40;;;;;;;3.25;2.20;;;;;;;17.27;48.82;100371.41;4493751;31;33038;-63
2022/10/16 08:21:13;;;;;;;6.70;4.28;;;;;;;17.47;48.48;100369.56;4495091;31;33714;-63
2022/10/16 08:23:49;;;;;;;3.75;2.33;;;;;;;17.51;49.39;100364.69;4492702;31;34146;-63
2022/10/16 08:26:23;;;;;;;;;;;;;;;17.76;48.34;100366.78;4492165;31;33894;-63
2022/10/16 08:28:51;;;;;;;3.87;2.75;;;;;;;17.46;48.46;100373.22;4489545;31;34369;-63
2022/10/16 08:31:19;;;;;;;6.05;3.78;;;;;;;17.77;48.23;100382.06;4489213;31;34965;-63
2022/10/16 08:33:47;;;;;;;6.35;3.92;;;;;;;17.23;49.19;100378.94;4489515;31;34773;-64
2022/10/16 08:36:16;;;;;;;7.00;4.32;;;;;;;17.24;49.48;100379.81;4490033;31;33688;-62
2022/10/16 08:38:43;;;;;;;6.87;3.97;;;;;;;16.93;49.89;100384.47;4484068;31;33136;-62
2022/10/16 08:41:18;;;;;;;8.23;3.62;;;;;;;17.12;50.14;100383.66;4491352;31;33785;-63
2022/10/16 08:44:01;;;;;;;4.35;2.78;;;;;;;17.01;50.69;100379.22;4490854;31;33115;-62
2022/10/16 08:46:34;;;;;;;7.03;3.55;;;;;;;17.51;49.05;100380.94;4494713;31;32624;-65
2022/10/16 08:49:02;;;;;;;8.55;3.90;;;;;;;17.27;49.42;100384.94;4485472;31;31948;-63
2022/10/16 08:51:34;;;;;;;7.72;5.20;;;;;;;17.58;49.28;100385.63;4485050;31;33552;-63
2022/10/16 08:54:30;;;;;;;6.43;2.85;;;;;;;18.08;48.85;100387.28;4489644;31;33020;-63
2022/10/16 08:57:07;;;;;;;4.30;2.85;;;;;;;18.05;48.87;100384.84;4487987;31;32903;-63
2022/10/16 08:59:35;;;;;;;4.50;3.12;;;;;;;18.27;48.60;100389.91;4487504;31;32992;-63
2022/10/16 09:02:19;;;;;;;7.35;3.80;;;;;;;18.05;48.12;100390.28;4489856;31;34055;-64
2022/10/16 09:05:13;;;;;;;10.68;3.35;;;;;;;18.29;47.77;100400.59;4490149;31;36415;-63
2022/10/16 09:08:08;;;;;;;10.02;4.57;;;;;;;18.13;47.56;100390.38;4481497;31;33380;-64
2022/10/16 09:11:04;;;;;;;12.02;6.53;;;;;;;18.12;47.66;100392.25;4490724;31;32266;-64
2022/10/16 09:13:57;;;;;;;7.37;4.40;;;;;;;18.16;47.53;100399.06;4477017;31;263135;-64
2022/10/16 09:16:36;;;;;;;5.35;3.80;;;;;;;17.78;48.70;100404.56;4480009;31;32828;-64
2022/10/16 09:19:24;;;;;;;4.32;2.85;;;;;;;18.26;48.70;100404.44;4486976;31;34230;-63
2022/10/16 09:21:53;;;;;;;6.82;4.28;;;;;;;17.81;49.22;100401.56;4479773;31;34660;-64
2022/10/16 09:24:23;;;;;;;5.03;3.30;;;;;;;18.00;48.74;100401.53;4496019;31;34904;-64
2022/10/16 09:26:55;;;;;;;;;;;;;;;18.47;47.44;100397.97;4469265;31;33605;-64
2022/10/16 09:29:25;;;;;;;6.72;4.75;;;;;;;18.21;47.97;100397.78;4488830;31;34133;-64
2022/10/16 09:31:54;;;;;;;5.47;4.07;;;;;;;18.44;47.49;100398.25;4496158;31;33296;-63
2022/10/16 09:34:37;;;;;;;6.10;4.03;;;;;;;18.18;47.62;100398.06;4488136;31;34273;-65
2022/10/16 09:37:10;;;;;;;7.68;4.35;;;;;;;18.31;47.62;100399.44;4485339;31;34070;-64
2022/10/16 09:39:50;;;;;;;5.68;3.65;;;;;;;18.20;48.34;100404.19;4487009;31;33933;-64
2022/10/16 09:42:20;;;;;;;8.07;5.50;;;;;;;18.50;47.31;100403.09;4492458;31;34477;-64
2022/10/16 09:44:53;;;;;;;7.62;3.75;;;;;;;18.56;47.59;100397.91;4481722;31;33042;-64
2022/10/16 09:47:23;;;;;;;4.20;3.53;;;;;;;18.74;48.42;100408.81;4492967;31;33518;-64
2022/10/16 09:49:52;;;;;;;9.40;4.97;;;;;;;18.79;47.11;100414.66;4490606;31;32216;-64
2022/10/16 09:52:20;;;;;;;7.53;4.53;;;;;;;18.92;46.54;100422.44;4493288;31;31910;-64
2022/10/16 09:54:59;;;;;;;7.60;4.20;;;;;;;18.60;47.71;100431.00;4483186;31;35063;-64
2022/10/16 09:57:27;;;;;;;9.15;4.85;;;;;;;19.07;46.54;100417.34;4489166;31;35282;-64
2022/10/16 09:59:57;;;;;;;7.28;3.42;;;;;;;19.01;46.54;100418.81;4488584;31;32713;-65
2022/10/16 10:02:35;;;;;;;6.20;3.75;;;;;;;18.66;47.28;100424.13;4482448;31;33324;-65
2022/10/16 10:05:05;;;;;;;12.37;4.57;;;;;;;19.06;46.17;100416.47;4491969;31;33933;-65
2022/10/16 10:07:37;;;;;;;9.85;4.53;;;;;;;19.03;46.72;100421.34;4486098;31;36083;-64
2022/10/16 10:10:05;;;;;;;5.15;4.32;;;;;;;19.26;46.18;100417.22;4492201;31;34044;-65
2022/10/16 10:12:36;;;;;;;9.18;5.85;;;;;;;19.38;46.14;100403.37;4479503;31;33609;-65
2022/10/16 10:15:06;;;;;;;9.00;5.07;;;;;;;19.31;46.29;100403.16;4481546;31;33927;-64
2022/10/16 10:17:46;;;;;;;5.03;3.30;;;;;;;19.04;46.57;100399.50;4482262;31;33963;-63
2022/10/16 10:20:37;;;;;;;9.93;4.55;;;;;;;19.16;46.50;100396.56;4491399;31;33913;-65
2022/10/16 10:23:35;;;;;;;7.85;4.80;;;;;;;19.27;46.43;100397.19;4490773;31;33211;-64
2022/10/16 10:26:09;;;;;;;7.57;5.07;;;;;;;19.27;46.29;100399.06;4474128;31;35068;-65
2022/10/16 10:28:49;;;;;;;10.07;3.50;;;;;;;19.58;46.61;100394.06;4479301;31;34068;-64
2022/10/16 10:31:23;;;;;;;9.30;4.65;;;;;;;19.58;45.71;100395.94;4484199;31;33532;-64
2022/10/16 10:34:15;;;;;;;9.07;4.80;;;;;;;19.79;45.39;100385.63;4505823;31;34200;-64
2022/10/16 10:36:50;;;;;;;8.50;5.00;;;;;;;19.31;46.37;100386.88;4489818;31;35559;-65
2022/10/16 10:39:38;;;;;;;7.00;3.58;;;;;;;19.78;45.36;100389.34;4486216;31;32975;-64
2022/10/16 10:42:23;;;;;;;5.82;3.28;;;;;;;19.73;45.81;100395.25;4488938;31;32711;-65
2022/10/16 10:45:17;;;;;;;8.90;4.68;;;;;;;19.92;45.10;100386.03;4486782;31;33319;-65
2022/10/16 10:48:03;;;;;;;7.85;4.43;;;;;;;20.13;44.69;100387.53;4496577;31;33660;-66
2022/10/16 10:50:58;;;;;;;10.32;4.37;;;;;;;19.91;44.63;100388.94;4488216;31;35153;-66
2022/10/16 10:54:07;;;;;;;7.22;3.83;;;;;;;20.25;44.49;100392.50;4475147;31;33850;-64
2022/10/16 10:57:00;;;;;;;7.53;4.95;;;;;;;20.10;44.62;100391.44;4467869;31;33014;-64
2022/10/16 10:59:33;;;;;;;7.10;4.32;;;;;;;20.28;43.82;100396.78;4485608;31;34753;-64
2022/10/16 11:02:15;;;;;;;7.47;3.35;;;;;;;20.09;45.00;100389.69;4504978;31;35008;-65
2022/10/16 11:04:58;;;;;;;8.25;4.85;;;;;;;20.09;45.38;100397.84;4482789;31;32735;-65
2022/10/16 11:07:33;;;;;;;8.52;4.43;;;;;;;20.46;44.10;100397.56;4496676;31;33661;-64
2022/10/16 11:10:22;;;;;;;5.18;2.87;;;;;;;20.41;43.31;100399.06;4490083;31;35166;-64
2022/10/16 11:13:35;;;;;;;8.32;4.80;;;;;;;20.22;44.95;100392.00;4497717;31;32846;-64
2022/10/16 11:16:11;;;;;;;8.45;3.92;;;;;;;20.30;44.42;100386.63;4488228;31;32490;-64
2022/10/16 11:18:59;;;;;;;11.00;5.10;;;;;;;20.45;43.83;100381.44;4489679;31;34440;-65
2022/10/16 11:21:30;;;;;;;7.60;4.45;;;;;;;20.27;44.07;100380.66;4496426;31;32702;-66
2022/10/16 11:24:14;;;;;;;6.45;3.72;;;;;;;20.76;43.47;100380.88;4485933;31;35691;-64
2022/10/16 11:26:43;;;;;;;4.80;2.80;;;;;;;20.65;42.72;100379.31;4490689;31;33428;-64
2022/10/16 11:29:17;;;;;;;7.82;4.53;;;;;;;20.40;44.00;100372.91;4482925;31;33346;-65
2022/10/16 11:31:51;;;;;;;5.05;2.83;;;;;;;20.95;42.43;100369.72;4485304;31;34400;-64
2022/10/16 11:34:50;;;;;;;9.13;3.92;;;;;;;20.95;42.23;100367.00;4493084;31;33104;-65
2022/10/16 11:37:21;;;;;;;7.62;4.60;;;;;;;21.10;42.10;100368.03;4470436;32;33684;-67
2022/10/16 11:39:50;;;;;;;7.03;4.12;;;;;;;21.01;42.13;100371.75;4490457;31;33211;-65
2022/10/16 11:42:49;;;;;;;6.53;4.07;;;;;;;21.15;41.50;100379.28;4481194;31;32605;-66
2022/10/16 11:45:48;;;;;;;6.00;3.30;;;;;;;20.84;42.19;100379.03;4486472;31;34431;-65
2022/10/16 11:48:24;;;;;;;5.93;2.92;;;;;;;21.00;42.13;100377.38;4491777;31;33834;-66